Ozgur Aksoy — 9HA2587 — position and weather

sailwx.info

Track history (hours):
 
Tides and Currents Weather Stations Pressure Air Temp Water Temp Dewpoint Dewpoint Depression Visibility Wind Speed Wind Dir Waves Ship Positions

Ozgur Aksoy

Last reported at 2017-Jul-24 04:30 UTC. Time now 2017-Jul-24 04:47 UTC.
Position N 49°18' W 123°11'.

Length 196 m; draft 6.9 m.

Type: Cargo ship. MMSI: 248950000.

Date/timePositionNaut miles runAvg speedWind from/ knotsBaromVisibWave heightAir tempDewpointWater temp
2017-Jul-24 04:30N 49°18' W 123°11'0 0.1
2017-Jul-24 03:54N 49°18' W 123°11'0 0.1
2017-Jul-24 03:27N 49°18' W 123°11'0 0.0
2017-Jul-24 03:00N 49°18' W 123°11'0 0.1
2017-Jul-24 02:27N 49°18' W 123°11'0 0.0
2017-Jul-24 02:00N 49°18' W 123°11'0 0.0
2017-Jul-24 01:21N 49°18' W 123°11'0 0.0
2017-Jul-24 01:00N 49°18' W 123°11'0 0.1
2017-Jul-24 00:24N 49°18' W 123°11'0 0.1
2017-Jul-23 23:57N 49°18' W 123°11'0 0.0
2017-Jul-23 23:27N 49°18' W 123°11'0 0.0
2017-Jul-23 22:54N 49°18' W 123°11'0 0.0
2017-Jul-23 22:27N 49°18' W 123°11'0 0.0
2017-Jul-23 21:54N 49°18' W 123°11'0 0.0
2017-Jul-23 21:30N 49°18' W 123°11'0 0.0
2017-Jul-23 20:57N 49°18' W 123°11'0 0.0
2017-Jul-23 20:18N 49°18' W 123°11'0 0.1
2017-Jul-23 19:57N 49°18' W 123°11'0 0.0
2017-Jul-23 19:18N 49°18' W 123°11'0 0.0
2017-Jul-23 18:57N 49°18' W 123°11'0 0.0
2017-Jul-23 18:30N 49°18' W 123°11'0 0.0
2017-Jul-23 17:45N 49°18' W 123°11'0 0.0
2017-Jul-23 17:30N 49°18' W 123°11'0 0.1
2017-Jul-23 17:00N 49°18' W 123°11'0 0.2
2017-Jul-23 16:30N 49°18' W 123°12'0 0.2
2017-Jul-23 16:00N 49°18' W 123°12'0 0.1
2017-Jul-23 15:27N 49°18' W 123°12'0 0.1
2017-Jul-23 14:57N 49°18' W 123°12'0 0.1
2017-Jul-23 14:30N 49°18' W 123°12'0 0.1
2017-Jul-23 14:00N 49°18' W 123°12'0 0.1
2017-Jul-23 13:30N 49°18' W 123°12'0 0.1
2017-Jul-23 12:57N 49°18' W 123°11'0 0.1
2017-Jul-23 12:30N 49°18' W 123°11'0 0.2
2017-Jul-23 12:00N 49°18' W 123°12'0 0.1
2017-Jul-23 11:30N 49°18' W 123°12'0 0.0
2017-Jul-23 11:00N 49°18' W 123°12'0 0.1
2017-Jul-23 10:21N 49°18' W 123°11'0 0.1
2017-Jul-23 09:54N 49°18' W 123°11'0 0.1
2017-Jul-23 09:27N 49°18' W 123°11'0 0.1
2017-Jul-23 08:57N 49°18' W 123°11'0 0.1
2017-Jul-23 08:27N 49°18' W 123°11'0 0.3
2017-Jul-23 07:57N 49°18' W 123°12'0 0.0
2017-Jul-23 07:30N 49°18' W 123°12'0 0.0
2017-Jul-23 06:51N 49°18' W 123°12'0 0.1
2017-Jul-23 06:27N 49°18' W 123°12'0 0.1
2017-Jul-23 06:00N 49°18' W 123°12'0 0.0
2017-Jul-23 05:15N 49°18' W 123°12'0 0.1
2017-Jul-23 04:54N 49°18' W 123°12'0 0.1
2017-Jul-23 04:27N 49°18' W 123°12'0 0.2
2017-Jul-23 03:57N 49°18' W 123°11'0 0.1
2017-Jul-23 03:27N 49°18' W 123°11'0 0.1
2017-Jul-23 03:00N 49°18' W 123°11'0 0.0
2017-Jul-23 02:30N 49°18' W 123°11'0 0.1
2017-Jul-23 01:57N 49°18' W 123°11'0 0.0
2017-Jul-23 01:24N 49°18' W 123°11'0 0.0
2017-Jul-23 01:00N 49°18' W 123°11'0 0.0
2017-Jul-23 00:12N 49°18' W 123°11'0 0.1
2017-Jul-23 00:00N 49°18' W 123°11'0 0.0
2017-Jul-22 23:27N 49°18' W 123°11'0 0.1
2017-Jul-22 23:00N 49°18' W 123°11'0 0.5
2017-Jul-22 22:30N 49°18' W 123°12'2 3.4
2017-Jul-22 22:00N 49°18' W 123°14'4 8.3
2017-Jul-22 21:30N 49°15' W 123°18'713.0
2017-Jul-22 21:00N 49°08' W 123°20'712.9
2017-Jul-22 20:29N 49°02' W 123°17'713.9
2017-Jul-22 20:00N 48°57' W 123°10'713.2
2017-Jul-22 19:30N 48°52' W 123°03'611.4
2017-Jul-22 19:00N 48°46' W 123°03'611.9
2017-Jul-22 18:30N 48°43' W 123°10'5 9.0
2017-Jul-22 18:00N 48°39' W 123°14'510.7
2017-Jul-22 17:30N 48°34' W 123°12'5 9.9
2017-Jul-22 17:00N 48°29' W 123°10'4 8.9
2017-Jul-22 16:30N 48°25' W 123°11'611.6
2017-Jul-22 16:00N 48°22' W 123°19'4 7.8
2017-Jul-22 15:30N 48°21' W 123°24'4 7.0
2017-Jul-22 15:00N 48°17' W 123°26'9 9.2
2017-Jul-22 14:00N 48°13' W 123°38'5 9.2
2017-Jul-22 13:30N 48°13' W 123°45'510.8
2017-Jul-22 13:00N 48°13' W 123°53'611.1
2017-Jul-22 12:30N 48°15' W 124°01'5 9.6
2017-Jul-22 11:58N 48°17' W 124°08'4 9.7
2017-Jul-22 11:30N 48°19' W 124°14'510.3
2017-Jul-22 11:00N 48°21' W 124°21'510.0
2017-Jul-22 10:30N 48°24' W 124°28'5 9.7
2017-Jul-22 10:00N 48°26' W 124°35'5 9.3
2017-Jul-22 09:30N 48°28' W 124°41'4 8.9
2017-Jul-22 09:00N 48°29' W 124°47'1530.7
2017-Jul-22 08:30N 48°28' W 125°11'3 6.2
2017-Jul-22 08:00N 48°29' W 125°06'612.8
2017-Jul-22 07:30N 48°28' W 125°16'612.7
2017-Jul-22 07:00N 48°28' W 125°25'613.0
2017-Jul-22 06:30N 48°28' W 125°35'612.9
2017-Jul-22 06:00N 48°28' W 125°45'612.2
2017-Jul-22 05:30N 48°28' W 125°54'612.5
2017-Jul-22 05:00N 48°28' W 126°03'612.7
2017-Jul-22 04:30N 48°28' W 126°13'  
Track history (hours):
 
Tides and Currents Weather Stations Pressure Air Temp Water Temp Dewpoint Dewpoint Depression Visibility Wind Speed Wind Dir Waves Ship Positions

Ozgur Aksoy

Last reported at 2017-Jul-24 04:30 UTC. Time now 2017-Jul-24 04:47 UTC.
Position N 49°18' W 123°11'.

Length 196 m; draft 6.9 m.

Type: Cargo ship. MMSI: 248950000.

Date/timePositionNaut miles runAvg speedWind from/ knotsBaromVisibWave heightAir tempDewpointWater temp
2017-Jul-24 04:30N 49°18' W 123°11'0 0.1
2017-Jul-24 03:54N 49°18' W 123°11'0 0.1
2017-Jul-24 03:27N 49°18' W 123°11'0 0.0
2017-Jul-24 03:00N 49°18' W 123°11'0 0.1
2017-Jul-24 02:27N 49°18' W 123°11'0 0.0
2017-Jul-24 02:00N 49°18' W 123°11'0 0.0
2017-Jul-24 01:21N 49°18' W 123°11'0 0.0
2017-Jul-24 01:00N 49°18' W 123°11'0 0.1
2017-Jul-24 00:24N 49°18' W 123°11'0 0.1
2017-Jul-23 23:57N 49°18' W 123°11'0 0.0
2017-Jul-23 23:27N 49°18' W 123°11'0 0.0
2017-Jul-23 22:54N 49°18' W 123°11'0 0.0
2017-Jul-23 22:27N 49°18' W 123°11'0 0.0
2017-Jul-23 21:54N 49°18' W 123°11'0 0.0
2017-Jul-23 21:30N 49°18' W 123°11'0 0.0
2017-Jul-23 20:57N 49°18' W 123°11'0 0.0
2017-Jul-23 20:18N 49°18' W 123°11'0 0.1
2017-Jul-23 19:57N 49°18' W 123°11'0 0.0
2017-Jul-23 19:18N 49°18' W 123°11'0 0.0
2017-Jul-23 18:57N 49°18' W 123°11'0 0.0
2017-Jul-23 18:30N 49°18' W 123°11'0 0.0
2017-Jul-23 17:45N 49°18' W 123°11'0 0.0
2017-Jul-23 17:30N 49°18' W 123°11'0 0.1
2017-Jul-23 17:00N 49°18' W 123°11'0 0.2
2017-Jul-23 16:30N 49°18' W 123°12'0 0.2
2017-Jul-23 16:00N 49°18' W 123°12'0 0.1
2017-Jul-23 15:27N 49°18' W 123°12'0 0.1
2017-Jul-23 14:57N 49°18' W 123°12'0 0.1
2017-Jul-23 14:30N 49°18' W 123°12'0 0.1
2017-Jul-23 14:00N 49°18' W 123°12'0 0.1
2017-Jul-23 13:30N 49°18' W 123°12'0 0.1
2017-Jul-23 12:57N 49°18' W 123°11'0 0.1
2017-Jul-23 12:30N 49°18' W 123°11'0 0.2
2017-Jul-23 12:00N 49°18' W 123°12'0 0.1
2017-Jul-23 11:30N 49°18' W 123°12'0 0.0
2017-Jul-23 11:00N 49°18' W 123°12'0 0.1
2017-Jul-23 10:21N 49°18' W 123°11'0 0.1
2017-Jul-23 09:54N 49°18' W 123°11'0 0.1
2017-Jul-23 09:27N 49°18' W 123°11'0 0.1
2017-Jul-23 08:57N 49°18' W 123°11'0 0.1
2017-Jul-23 08:27N 49°18' W 123°11'0 0.3
2017-Jul-23 07:57N 49°18' W 123°12'0 0.0
2017-Jul-23 07:30N 49°18' W 123°12'0 0.0
2017-Jul-23 06:51N 49°18' W 123°12'0 0.1
2017-Jul-23 06:27N 49°18' W 123°12'0 0.1
2017-Jul-23 06:00N 49°18' W 123°12'0 0.0
2017-Jul-23 05:15N 49°18' W 123°12'0 0.1
2017-Jul-23 04:54N 49°18' W 123°12'0 0.1
2017-Jul-23 04:27N 49°18' W 123°12'0 0.2
2017-Jul-23 03:57N 49°18' W 123°11'0 0.1
2017-Jul-23 03:27N 49°18' W 123°11'0 0.1
2017-Jul-23 03:00N 49°18' W 123°11'0 0.0
2017-Jul-23 02:30N 49°18' W 123°11'0 0.1
2017-Jul-23 01:57N 49°18' W 123°11'0 0.0
2017-Jul-23 01:24N 49°18' W 123°11'0 0.0
2017-Jul-23 01:00N 49°18' W 123°11'0 0.0
2017-Jul-23 00:12N 49°18' W 123°11'0 0.1
2017-Jul-23 00:00N 49°18' W 123°11'0 0.0
2017-Jul-22 23:27N 49°18' W 123°11'0 0.1
2017-Jul-22 23:00N 49°18' W 123°11'0 0.5
2017-Jul-22 22:30N 49°18' W 123°12'2 3.4
2017-Jul-22 22:00N 49°18' W 123°14'4 8.3
2017-Jul-22 21:30N 49°15' W 123°18'713.0
2017-Jul-22 21:00N 49°08' W 123°20'712.9
2017-Jul-22 20:29N 49°02' W 123°17'713.9
2017-Jul-22 20:00N 48°57' W 123°10'713.2
2017-Jul-22 19:30N 48°52' W 123°03'611.4
2017-Jul-22 19:00N 48°46' W 123°03'611.9
2017-Jul-22 18:30N 48°43' W 123°10'5 9.0
2017-Jul-22 18:00N 48°39' W 123°14'510.7
2017-Jul-22 17:30N 48°34' W 123°12'5 9.9
2017-Jul-22 17:00N 48°29' W 123°10'4 8.9
2017-Jul-22 16:30N 48°25' W 123°11'611.6
2017-Jul-22 16:00N 48°22' W 123°19'4 7.8
2017-Jul-22 15:30N 48°21' W 123°24'4 7.0
2017-Jul-22 15:00N 48°17' W 123°26'9 9.2
2017-Jul-22 14:00N 48°13' W 123°38'5 9.2
2017-Jul-22 13:30N 48°13' W 123°45'510.8
2017-Jul-22 13:00N 48°13' W 123°53'611.1
2017-Jul-22 12:30N 48°15' W 124°01'5 9.6
2017-Jul-22 11:58N 48°17' W 124°08'4 9.7
2017-Jul-22 11:30N 48°19' W 124°14'510.3
2017-Jul-22 11:00N 48°21' W 124°21'510.0
2017-Jul-22 10:30N 48°24' W 124°28'5 9.7
2017-Jul-22 10:00N 48°26' W 124°35'5 9.3
2017-Jul-22 09:30N 48°28' W 124°41'4 8.9
2017-Jul-22 09:00N 48°29' W 124°47'1530.7
2017-Jul-22 08:30N 48°28' W 125°11'3 6.2
2017-Jul-22 08:00N 48°29' W 125°06'612.8
2017-Jul-22 07:30N 48°28' W 125°16'612.7
2017-Jul-22 07:00N 48°28' W 125°25'613.0
2017-Jul-22 06:30N 48°28' W 125°35'612.9
2017-Jul-22 06:00N 48°28' W 125°45'612.2
2017-Jul-22 05:30N 48°28' W 125°54'612.5
2017-Jul-22 05:00N 48°28' W 126°03'612.7
2017-Jul-22 04:30N 48°28' W 126°13'  

Dump ship's entire track history